Main page
METAR-TAF:

METAR-TAF

Airports :

Queen Alia International Airport

Amman-Queen Alia, Jordan

latitude: 31-40N, longitude: 035-58E, elevation: 721 m

Current weather observation

The report was made 16 minutes ago, at 06:00 UTC
Wind 8 kt from the West/Southwest
Temperature 26°C
Humidity 45%
Pressure 1009 hPa
Visibility: 6000 m

METAR: OJAI 300600Z 25008KT 6000 NSC 26/13 Q1009 NOSIG

Time: 09:16 (06:16 UTC)

Forecast

The report was made 2 hours and 3 minutes ago, at 04:13 UTC
Forecast valid from 30 at 06 UTC to 31 at 12 UTC
Wind 12 kt from the West/Northwest
Visibility: 6000 m
Probability 30% :
Temporary
from 30 at 12 UTC to 30 at 15 UTC
Wind 20 kt from the West/Northwest
Visibility: 4000 m
Blowing dust

TAF: OJAI 300413Z 3006/3112 29012KT 6000 NSC PROB30 TEMPO 3012/3015 29020KT 4000 BLDU

Weather observations and forecasts of more than 4000 airports (METAR and TAF reports).

The available stations are represented by yellow and red dots on the map.

Hover mouse over dot to see the name of the station.

Then click to see weather observations and forecasts.

To change the map : click on the green buttons with a black cross to zoom in, on the green button with a dash to zoom out, or on the green arrows for adjacent maps.


METAR-TAF: